sensor_id;sensor_type;location;lat;lon;timestamp;pressure;altitude;pressure_sealevel;temperature;humidity
8890;BME280;4481;43.406;24.454;2022-09-09T00:00:52;76073.09;;;-144.09;94.60
8890;BME280;4481;43.406;24.454;2022-09-09T00:03:24;76073.09;;;-144.09;94.47
8890;BME280;4481;43.406;24.454;2022-09-09T00:05:58;76079.38;;;-144.09;94.46
8890;BME280;4481;43.406;24.454;2022-09-09T00:08:33;76077.28;;;-144.09;93.94
8890;BME280;4481;43.406;24.454;2022-09-09T00:11:05;76075.19;;;-144.09;93.93
8890;BME280;4481;43.406;24.454;2022-09-09T00:13:37;76085.63;;;-144.09;94.15
8890;BME280;4481;43.406;24.454;2022-09-09T00:16:11;76085.63;;;-144.09;94.06
8890;BME280;4481;43.406;24.454;2022-09-09T00:18:50;76091.91;;;-144.09;94.48
8890;BME280;4481;43.406;24.454;2022-09-09T00:21:22;76091.91;;;-144.09;94.55
8890;BME280;4481;43.406;24.454;2022-09-09T00:23:53;76108.63;;;-144.09;95.43
8890;BME280;4481;43.406;24.454;2022-09-09T00:26:23;76112.78;;;-144.09;95.37
8890;BME280;4481;43.406;24.454;2022-09-09T00:29:00;76112.78;;;-144.09;95.34
8890;BME280;4481;43.406;24.454;2022-09-09T00:31:31;76119.06;;;-144.09;95.81
8890;BME280;4481;43.406;24.454;2022-09-09T00:34:03;76123.25;;;-144.09;95.78
8890;BME280;4481;43.406;24.454;2022-09-09T00:36:32;76125.34;;;-144.09;96.02
8890;BME280;4481;43.406;24.454;2022-09-09T00:39:00;76125.34;;;-144.09;96.17
8890;BME280;4481;43.406;24.454;2022-09-09T00:41:36;76167.13;;;-144.09;96.66
8890;BME280;4481;43.406;24.454;2022-09-09T00:44:20;76185.94;;;-144.09;97.63
8890;BME280;4481;43.406;24.454;2022-09-09T00:46:59;76167.13;;;-144.09;97.30
8890;BME280;4481;43.406;24.454;2022-09-09T00:49:36;76158.75;;;-144.09;97.06
8890;BME280;4481;43.406;24.454;2022-09-09T00:52:19;76150.41;;;-144.09;96.82
8890;BME280;4481;43.406;24.454;2022-09-09T00:54:54;76156.69;;;-144.09;96.92
8890;BME280;4481;43.406;24.454;2022-09-09T00:57:25;76165.03;;;-144.09;96.61
8890;BME280;4481;43.406;24.454;2022-09-09T00:59:58;76156.69;;;-144.09;96.32
8890;BME280;4481;43.406;24.454;2022-09-09T01:02:32;76146.22;;;-144.09;95.78
8890;BME280;4481;43.406;24.454;2022-09-09T01:05:07;76171.31;;;-144.09;95.88
8890;BME280;4481;43.406;24.454;2022-09-09T01:07:37;76175.47;;;-144.09;95.32
8890;BME280;4481;43.406;24.454;2022-09-09T01:10:07;76188.00;;;-144.09;95.32
8890;BME280;4481;43.406;24.454;2022-09-09T01:12:39;76165.03;;;-144.09;94.97
8890;BME280;4481;43.406;24.454;2022-09-09T01:15:12;76162.94;;;-144.09;94.62
8890;BME280;4481;43.406;24.454;2022-09-09T01:17:53;76165.03;;;-144.09;94.71
8890;BME280;4481;43.406;24.454;2022-09-09T01:20:26;76160.84;;;-144.09;94.26
8890;BME280;4481;43.406;24.454;2022-09-09T01:23:05;76165.03;;;-144.09;94.70
8890;BME280;4481;43.406;24.454;2022-09-09T01:26:10;76167.13;;;-144.09;94.83
8890;BME280;4481;43.406;24.454;2022-09-09T01:28:40;76160.84;;;-144.09;94.68
8890;BME280;4481;43.406;24.454;2022-09-09T01:31:12;76162.94;;;-144.09;94.71
8890;BME280;4481;43.406;24.454;2022-09-09T01:33:40;76162.94;;;-144.09;94.86
8890;BME280;4481;43.406;24.454;2022-09-09T01:36:09;76165.03;;;-144.09;95.66
8890;BME280;4481;43.406;24.454;2022-09-09T01:38:36;76162.94;;;-144.09;96.06
8890;BME280;4481;43.406;24.454;2022-09-09T01:41:03;76183.84;;;-144.09;96.63
8890;BME280;4481;43.406;24.454;2022-09-09T01:43:30;76190.09;;;-144.09;97.04
8890;BME280;4481;43.406;24.454;2022-09-09T01:45:59;76188.00;;;-144.09;97.02
8890;BME280;4481;43.406;24.454;2022-09-09T01:48:26;76196.38;;;-144.09;97.36
8890;BME280;4481;43.406;24.454;2022-09-09T01:50:53;76194.28;;;-144.09;97.64
8890;BME280;4481;43.406;24.454;2022-09-09T01:53:20;76198.47;;;-144.09;97.89
8890;BME280;4481;43.406;24.454;2022-09-09T01:55:54;76204.72;;;-144.09;98.26
8890;BME280;4481;43.406;24.454;2022-09-09T01:58:32;76208.91;;;-144.09;98.41
8890;BME280;4481;43.406;24.454;2022-09-09T02:01:04;76223.53;;;-144.09;99.26
8890;BME280;4481;43.406;24.454;2022-09-09T02:03:32;76233.97;;;-144.09;99.50
8890;BME280;4481;43.406;24.454;2022-09-09T02:06:05;76231.88;;;-144.09;99.18
8890;BME280;4481;43.406;24.454;2022-09-09T02:08:41;76231.88;;;-144.09;99.16
8890;BME280;4481;43.406;24.454;2022-09-09T02:11:11;76242.34;;;-144.09;99.40
8890;BME280;4481;43.406;24.454;2022-09-09T02:13:40;76252.78;;;-144.09;99.67
8890;BME280;4481;43.406;24.454;2022-09-09T02:16:12;76238.16;;;-144.09;99.51
8890;BME280;4481;43.406;24.454;2022-09-09T02:18:41;76256.97;;;-144.09;99.73
8890;BME280;4481;43.406;24.454;2022-09-09T02:21:11;76261.13;;;-144.09;99.82
8890;BME280;4481;43.406;24.454;2022-09-09T02:23:40;76263.22;;;-144.09;99.76
8890;BME280;4481;43.406;24.454;2022-09-09T02:26:09;76271.59;;;-144.09;100.00
8890;BME280;4481;43.406;24.454;2022-09-09T02:28:37;76265.31;;;-144.09;99.54
8890;BME280;4481;43.406;24.454;2022-09-09T02:31:06;76275.75;;;-144.09;99.96
8890;BME280;4481;43.406;24.454;2022-09-09T02:33:36;76284.13;;;-144.09;99.96
8890;BME280;4481;43.406;24.454;2022-09-09T02:36:05;76282.03;;;-144.09;99.92
8890;BME280;4481;43.406;24.454;2022-09-09T02:38:37;76265.31;;;-144.09;99.54
8890;BME280;4481;43.406;24.454;2022-09-09T02:41:06;76263.22;;;-144.09;99.37
8890;BME280;4481;43.406;24.454;2022-09-09T02:43:33;76252.78;;;-144.09;98.88
8890;BME280;4481;43.406;24.454;2022-09-09T02:46:06;76261.13;;;-144.09;99.23
8890;BME280;4481;43.406;24.454;2022-09-09T02:48:40;76259.06;;;-144.09;99.06
8890;BME280;4481;43.406;24.454;2022-09-09T02:51:18;76256.97;;;-144.09;98.49
8890;BME280;4481;43.406;24.454;2022-09-09T02:53:51;76250.69;;;-144.09;98.21
8890;BME280;4481;43.406;24.454;2022-09-09T02:56:25;76244.44;;;-144.09;97.95
8890;BME280;4481;43.406;24.454;2022-09-09T02:58:54;76250.69;;;-144.09;98.04
8890;BME280;4481;43.406;24.454;2022-09-09T03:01:20;76246.50;;;-144.09;97.93
8890;BME280;4481;43.406;24.454;2022-09-09T03:03:47;76244.44;;;-144.09;97.99
8890;BME280;4481;43.406;24.454;2022-09-09T03:06:13;76236.06;;;-144.09;97.87
8890;BME280;4481;43.406;24.454;2022-09-09T03:08:40;76238.16;;;-144.09;97.76
8890;BME280;4481;43.406;24.454;2022-09-09T03:11:07;76242.34;;;-144.09;97.32
8890;BME280;4481;43.406;24.454;2022-09-09T03:13:35;76246.50;;;-144.09;97.53
8890;BME280;4481;43.406;24.454;2022-09-09T03:16:01;76256.97;;;-144.09;98.05
8890;BME280;4481;43.406;24.454;2022-09-09T03:18:29;76256.97;;;-144.09;98.18
8890;BME280;4481;43.406;24.454;2022-09-09T03:20:56;76261.13;;;-144.09;98.49
8890;BME280;4481;43.406;24.454;2022-09-09T03:23:23;76259.06;;;-144.09;98.42
8890;BME280;4481;43.406;24.454;2022-09-09T03:25:50;76252.78;;;-144.09;98.69
8890;BME280;4481;43.406;24.454;2022-09-09T03:28:17;76265.31;;;-144.09;98.90
8890;BME280;4481;43.406;24.454;2022-09-09T03:30:44;76256.97;;;-144.09;98.49
8890;BME280;4481;43.406;24.454;2022-09-09T03:33:10;76259.06;;;-144.09;98.35
8890;BME280;4481;43.406;24.454;2022-09-09T03:35:36;76252.78;;;-144.09;97.85
8890;BME280;4481;43.406;24.454;2022-09-09T03:38:03;76252.78;;;-144.09;97.82
8890;BME280;4481;43.406;24.454;2022-09-09T03:40:29;76271.59;;;-144.09;98.51
8890;BME280;4481;43.406;24.454;2022-09-09T03:42:56;76259.06;;;-144.09;98.41
8890;BME280;4481;43.406;24.454;2022-09-09T03:45:22;76254.88;;;-144.09;98.63
8890;BME280;4481;43.406;24.454;2022-09-09T03:47:48;76263.22;;;-144.09;98.86
8890;BME280;4481;43.406;24.454;2022-09-09T03:50:15;76254.88;;;-144.09;98.64
8890;BME280;4481;43.406;24.454;2022-09-09T03:52:41;76250.69;;;-144.09;98.32
8890;BME280;4481;43.406;24.454;2022-09-09T03:55:09;76233.97;;;-144.09;98.00
8890;BME280;4481;43.406;24.454;2022-09-09T03:57:35;76242.34;;;-144.09;98.01
8890;BME280;4481;43.406;24.454;2022-09-09T04:00:02;76242.34;;;-144.09;98.06
8890;BME280;4481;43.406;24.454;2022-09-09T04:02:29;76240.25;;;-144.09;97.88
8890;BME280;4481;43.406;24.454;2022-09-09T04:04:55;76248.59;;;-144.09;98.05
8890;BME280;4481;43.406;24.454;2022-09-09T04:07:21;76238.16;;;-144.09;97.82
8890;BME280;4481;43.406;24.454;2022-09-09T04:09:47;76238.16;;;-144.09;98.15
8890;BME280;4481;43.406;24.454;2022-09-09T04:12:14;76229.81;;;-144.09;98.00
8890;BME280;4481;43.406;24.454;2022-09-09T04:14:42;76225.63;;;-144.09;97.86
8890;BME280;4481;43.406;24.454;2022-09-09T04:17:08;76227.72;;;-144.09;97.63
8890;BME280;4481;43.406;24.454;2022-09-09T04:19:34;76219.34;;;-144.09;97.59
8890;BME280;4481;43.406;24.454;2022-09-09T04:22:00;76221.44;;;-144.09;97.38
8890;BME280;4481;43.406;24.454;2022-09-09T04:24:27;76223.53;;;-144.09;97.51
8890;BME280;4481;43.406;24.454;2022-09-09T04:26:54;76219.34;;;-144.09;97.53
8890;BME280;4481;43.406;24.454;2022-09-09T04:29:21;76219.34;;;-144.09;97.33
8890;BME280;4481;43.406;24.454;2022-09-09T04:31:47;76227.72;;;-144.09;97.66
8890;BME280;4481;43.406;24.454;2022-09-09T04:34:13;76217.25;;;-144.09;97.40
8890;BME280;4481;43.406;24.454;2022-09-09T04:36:40;76211.00;;;-144.09;96.97
8890;BME280;4481;43.406;24.454;2022-09-09T04:39:06;76206.81;;;-144.09;97.00
8890;BME280;4481;43.406;24.454;2022-09-09T04:41:32;76200.56;;;-144.09;96.71
8890;BME280;4481;43.406;24.454;2022-09-09T04:43:58;76190.09;;;-144.09;96.67
8890;BME280;4481;43.406;24.454;2022-09-09T04:46:26;76183.84;;;-144.09;96.51
8890;BME280;4481;43.406;24.454;2022-09-09T04:48:53;76175.47;;;-144.09;96.41
8890;BME280;4481;43.406;24.454;2022-09-09T04:51:19;76177.56;;;-144.09;96.46
8890;BME280;4481;43.406;24.454;2022-09-09T04:53:45;76179.66;;;-144.09;96.51
8890;BME280;4481;43.406;24.454;2022-09-09T04:56:14;76162.94;;;-144.09;96.04
8890;BME280;4481;43.406;24.454;2022-09-09T04:58:41;76162.94;;;-144.09;95.42
8890;BME280;4481;43.406;24.454;2022-09-09T05:01:09;76144.13;;;-144.09;95.02
8890;BME280;4481;43.406;24.454;2022-09-09T05:03:37;76116.97;;;-144.09;94.97
8890;BME280;4481;43.406;24.454;2022-09-09T05:06:05;76096.09;;;-144.09;94.50
8890;BME280;4481;43.406;24.454;2022-09-09T05:08:32;76075.19;;;-144.09;93.93
8890;BME280;4481;43.406;24.454;2022-09-09T05:10:58;76062.66;;;-144.09;93.24
8890;BME280;4481;43.406;24.454;2022-09-09T05:13:25;76045.94;;;-144.09;92.83
8890;BME280;4481;43.406;24.454;2022-09-09T05:15:52;76027.13;;;-144.09;92.45
8890;BME280;4481;43.406;24.454;2022-09-09T05:18:18;76010.44;;;-144.09;92.37
8890;BME280;4481;43.406;24.454;2022-09-09T05:20:45;75977.00;;;-144.09;91.71
8890;BME280;4481;43.406;24.454;2022-09-09T05:23:11;75956.09;;;-144.09;91.09
8890;BME280;4481;43.406;24.454;2022-09-09T05:25:38;75937.31;;;-144.09;90.07
8890;BME280;4481;43.406;24.454;2022-09-09T05:28:06;75918.50;;;-144.09;89.18
8890;BME280;4481;43.406;24.454;2022-09-09T05:30:33;75889.25;;;-144.09;88.64
8890;BME280;4481;43.406;24.454;2022-09-09T05:32:59;75855.81;;;-144.09;87.94
8890;BME280;4481;43.406;24.454;2022-09-09T05:35:26;75824.50;;;-144.09;86.75
8890;BME280;4481;43.406;24.454;2022-09-09T05:37:53;75797.34;;;-144.09;85.90
8890;BME280;4481;43.406;24.454;2022-09-09T05:40:19;75774.34;;;-144.09;84.70
8890;BME280;4481;43.406;24.454;2022-09-09T05:42:46;75745.09;;;-144.09;84.15
8890;BME280;4481;43.406;24.454;2022-09-09T05:45:13;75717.94;;;-144.09;83.16
8890;BME280;4481;43.406;24.454;2022-09-09T05:47:39;75690.78;;;-144.09;82.35
8890;BME280;4481;43.406;24.454;2022-09-09T05:50:05;75667.81;;;-144.09;81.77
8890;BME280;4481;43.406;24.454;2022-09-09T05:52:32;75640.66;;;-144.09;80.79
8890;BME280;4481;43.406;24.454;2022-09-09T05:54:59;75609.31;;;-144.09;80.13
8890;BME280;4481;43.406;24.454;2022-09-09T05:57:25;75592.59;;;-144.09;79.16
8890;BME280;4481;43.406;24.454;2022-09-09T05:59:51;75557.09;;;-144.09;77.92
8890;BME280;4481;43.406;24.454;2022-09-09T06:02:17;75532.03;;;-144.09;77.25
8890;BME280;4481;43.406;24.454;2022-09-09T06:04:43;75502.78;;;-144.09;76.78
8890;BME280;4481;43.406;24.454;2022-09-09T06:07:09;75461.00;;;-144.09;75.92
8890;BME280;4481;43.406;24.454;2022-09-09T06:09:35;75429.66;;;-144.09;74.94
8890;BME280;4481;43.406;24.454;2022-09-09T06:12:03;75389.97;;;-144.09;74.59
8890;BME280;4481;43.406;24.454;2022-09-09T06:14:29;75364.91;;;-144.09;73.64
8890;BME280;4481;43.406;24.454;2022-09-09T06:16:55;75335.66;;;-144.09;72.97
8890;BME280;4481;43.406;24.454;2022-09-09T06:19:22;75310.59;;;-144.09;72.25
8890;BME280;4481;43.406;24.454;2022-09-09T06:21:49;75279.28;;;-144.09;71.57
8890;BME280;4481;43.406;24.454;2022-09-09T06:24:16;75247.94;;;-144.09;70.54
8890;BME280;4481;43.406;24.454;2022-09-09T06:26:45;75224.97;;;-144.09;69.68
8890;BME280;4481;43.406;24.454;2022-09-09T06:29:11;75202.00;;;-144.09;69.82
8890;BME280;4481;43.406;24.454;2022-09-09T06:31:38;75176.94;;;-144.09;68.95
8890;BME280;4481;43.406;24.454;2022-09-09T06:34:05;75153.94;;;-144.09;68.16
8890;BME280;4481;43.406;24.454;2022-09-09T06:36:34;75126.78;;;-144.09;67.87
8890;BME280;4481;43.406;24.454;2022-09-09T06:39:00;75110.09;;;-144.09;67.56
8890;BME280;4481;43.406;24.454;2022-09-09T06:41:29;75103.81;;;-144.09;67.00
8890;BME280;4481;43.406;24.454;2022-09-09T06:43:55;75080.84;;;-144.09;66.05
8890;BME280;4481;43.406;24.454;2022-09-09T06:46:24;75047.44;;;-144.09;66.02
8890;BME280;4481;43.406;24.454;2022-09-09T06:48:53;75020.28;;;-144.09;65.31
8890;BME280;4481;43.406;24.454;2022-09-09T06:51:22;74997.31;;;-144.09;63.83
8890;BME280;4481;43.406;24.454;2022-09-09T06:53:51;74965.97;;;-144.09;64.61
8890;BME280;4481;43.406;24.454;2022-09-09T06:56:20;74949.25;;;-144.09;64.09
8890;BME280;4481;43.406;24.454;2022-09-09T06:58:47;74936.72;;;-144.09;62.97
8890;BME280;4481;43.406;24.454;2022-09-09T07:01:15;74905.41;;;-144.09;63.03
8890;BME280;4481;43.406;24.454;2022-09-09T07:03:45;74901.22;;;-144.09;62.80
8890;BME280;4481;43.406;24.454;2022-09-09T07:06:14;74913.75;;;-144.09;63.21
8890;BME280;4481;43.406;24.454;2022-09-09T07:08:42;74911.66;;;-144.09;63.21
8890;BME280;4481;43.406;24.454;2022-09-09T07:11:09;74897.06;;;-144.09;62.82
8890;BME280;4481;43.406;24.454;2022-09-09T07:13:36;74876.16;;;-144.09;62.38
8890;BME280;4481;43.406;24.454;2022-09-09T07:16:06;74861.53;;;-144.09;61.61
8890;BME280;4481;43.406;24.454;2022-09-09T07:18:33;74846.91;;;-144.09;61.53
8890;BME280;4481;43.406;24.454;2022-09-09T07:21:01;74844.84;;;-144.09;60.91
8890;BME280;4481;43.406;24.454;2022-09-09T07:23:28;74828.13;;;-144.09;61.37
8890;BME280;4481;43.406;24.454;2022-09-09T07:25:55;74823.94;;;-144.09;60.28
8890;BME280;4481;43.406;24.454;2022-09-09T07:28:22;74826.03;;;-144.09;59.28
8890;BME280;4481;43.406;24.454;2022-09-09T07:30:54;74834.38;;;-144.09;60.65
8890;BME280;4481;43.406;24.454;2022-09-09T07:33:21;74823.94;;;-144.09;60.39
8890;BME280;4481;43.406;24.454;2022-09-09T07:35:47;74817.69;;;-144.09;60.36
8890;BME280;4481;43.406;24.454;2022-09-09T07:38:14;74794.72;;;-144.09;60.50
8890;BME280;4481;43.406;24.454;2022-09-09T07:40:40;74773.81;;;-144.09;59.66
8890;BME280;4481;43.406;24.454;2022-09-09T07:43:07;74775.91;;;-144.09;58.90
8890;BME280;4481;43.406;24.454;2022-09-09T07:45:34;74761.28;;;-144.09;58.12
8890;BME280;4481;43.406;24.454;2022-09-09T07:48:01;74750.84;;;-144.09;58.34
8890;BME280;4481;43.406;24.454;2022-09-09T07:50:28;74736.22;;;-144.09;57.94
8890;BME280;4481;43.406;24.454;2022-09-09T07:52:54;74727.88;;;-144.09;56.76
8890;BME280;4481;43.406;24.454;2022-09-09T07:55:21;74715.34;;;-144.09;56.50
8890;BME280;4481;43.406;24.454;2022-09-09T07:57:50;74704.91;;;-144.09;56.63
8890;BME280;4481;43.406;24.454;2022-09-09T08:00:17;74688.19;;;-144.09;56.66
8890;BME280;4481;43.406;24.454;2022-09-09T08:02:44;74677.75;;;-144.09;55.80
8890;BME280;4481;43.406;24.454;2022-09-09T08:05:11;74656.88;;;-144.09;55.36
8890;BME280;4481;43.406;24.454;2022-09-09T08:07:38;74644.34;;;-144.09;55.13
8890;BME280;4481;43.406;24.454;2022-09-09T08:10:05;74629.72;;;-144.09;54.94
8890;BME280;4481;43.406;24.454;2022-09-09T08:12:32;74613.00;;;-144.09;54.30
8890;BME280;4481;43.406;24.454;2022-09-09T08:14:59;74604.66;;;-144.09;53.47
8890;BME280;4481;43.406;24.454;2022-09-09T08:17:25;74600.50;;;-144.09;53.31
8890;BME280;4481;43.406;24.454;2022-09-09T08:19:51;74600.50;;;-144.09;52.05
8890;BME280;4481;43.406;24.454;2022-09-09T08:22:17;74594.22;;;-144.09;51.70
8890;BME280;4481;43.406;24.454;2022-09-09T08:24:43;74573.34;;;-144.09;52.94
8890;BME280;4481;43.406;24.454;2022-09-09T08:27:09;74554.53;;;-144.09;52.36
8890;BME280;4481;43.406;24.454;2022-09-09T08:29:36;74525.31;;;-144.09;51.85
8890;BME280;4481;43.406;24.454;2022-09-09T08:32:03;74521.13;;;-144.09;51.45
8890;BME280;4481;43.406;24.454;2022-09-09T08:34:29;74535.75;;;-144.09;51.32
8890;BME280;4481;43.406;24.454;2022-09-09T08:36:56;74537.84;;;-144.09;51.31
8890;BME280;4481;43.406;24.454;2022-09-09T08:39:23;74525.31;;;-144.09;50.76
8890;BME280;4481;43.406;24.454;2022-09-09T08:42:11;74510.69;;;-144.09;51.21
8890;BME280;4481;43.406;24.454;2022-09-09T08:45:12;74502.34;;;-144.09;51.75
8890;BME280;4481;43.406;24.454;2022-09-09T08:47:48;74496.06;;;-144.09;51.57
8890;BME280;4481;43.406;24.454;2022-09-09T08:50:22;74504.41;;;-144.09;50.24
8890;BME280;4481;43.406;24.454;2022-09-09T08:52:54;74487.72;;;-144.09;50.73
8890;BME280;4481;43.406;24.454;2022-09-09T08:55:27;74460.56;;;-144.09;49.67
8890;BME280;4481;43.406;24.454;2022-09-09T08:57:57;74435.50;;;-144.09;49.75
8890;BME280;4481;43.406;24.454;2022-09-09T09:00:31;74427.16;;;-144.09;48.94
8890;BME280;4481;43.406;24.454;2022-09-09T09:03:09;74408.38;;;-144.09;47.14
8890;BME280;4481;43.406;24.454;2022-09-09T09:05:46;74393.75;;;-144.09;45.87
8890;BME280;4481;43.406;24.454;2022-09-09T09:08:20;74389.56;;;-144.09;47.21
8890;BME280;4481;43.406;24.454;2022-09-09T09:10:49;74383.31;;;-144.09;47.33
8890;BME280;4481;43.406;24.454;2022-09-09T09:13:19;74377.03;;;-144.09;47.02
8890;BME280;4481;43.406;24.454;2022-09-09T09:15:52;74385.38;;;-144.09;46.70
8890;BME280;4481;43.406;24.454;2022-09-09T09:18:18;74393.75;;;-144.09;46.68
8890;BME280;4481;43.406;24.454;2022-09-09T09:20:50;74385.38;;;-144.09;47.28
8890;BME280;4481;43.406;24.454;2022-09-09T09:23:22;74372.88;;;-144.09;45.47
8890;BME280;4481;43.406;24.454;2022-09-09T09:25:50;74360.34;;;-144.09;45.90
8890;BME280;4481;43.406;24.454;2022-09-09T09:28:23;74360.34;;;-144.09;45.82
8890;BME280;4481;43.406;24.454;2022-09-09T09:30:53;74366.59;;;-144.09;45.58
8890;BME280;4481;43.406;24.454;2022-09-09T09:33:22;74368.69;;;-144.09;46.36
8890;BME280;4481;43.406;24.454;2022-09-09T09:35:50;74370.78;;;-144.09;45.87
8890;BME280;4481;43.406;24.454;2022-09-09T09:38:17;74368.69;;;-144.09;45.82
8890;BME280;4481;43.406;24.454;2022-09-09T09:40:49;74383.31;;;-144.09;46.77
8890;BME280;4481;43.406;24.454;2022-09-09T09:43:20;74379.13;;;-144.09;46.55
8890;BME280;4481;43.406;24.454;2022-09-09T09:45:47;74343.63;;;-144.09;45.80
8890;BME280;4481;43.406;24.454;2022-09-09T09:48:14;74320.66;;;-144.09;45.42
8890;BME280;4481;43.406;24.454;2022-09-09T09:50:47;74291.41;;;-144.09;44.73
8890;BME280;4481;43.406;24.454;2022-09-09T09:53:21;74289.34;;;-144.09;45.27
8890;BME280;4481;43.406;24.454;2022-09-09T09:55:52;74283.06;;;-144.09;43.88
8890;BME280;4481;43.406;24.454;2022-09-09T09:58:19;74283.06;;;-144.09;45.08
8890;BME280;4481;43.406;24.454;2022-09-09T10:00:47;74295.59;;;-144.09;43.18
8890;BME280;4481;43.406;24.454;2022-09-09T10:03:22;74312.31;;;-144.09;44.50
8890;BME280;4481;43.406;24.454;2022-09-09T10:05:49;74318.56;;;-144.09;45.25
8890;BME280;4481;43.406;24.454;2022-09-09T10:08:16;74335.28;;;-144.09;44.87
8890;BME280;4481;43.406;24.454;2022-09-09T10:10:52;74351.97;;;-144.09;46.52
8890;BME280;4481;43.406;24.454;2022-09-09T10:13:29;74351.97;;;-144.09;46.26
8890;BME280;4481;43.406;24.454;2022-09-09T10:16:18;74366.59;;;-144.09;46.07
8890;BME280;4481;43.406;24.454;2022-09-09T10:18:59;74341.53;;;-144.09;46.55
8890;BME280;4481;43.406;24.454;2022-09-09T10:21:44;74331.09;;;-144.09;45.41
8890;BME280;4481;43.406;24.454;2022-09-09T10:27:17;74331.09;;;-144.09;43.82
8890;BME280;4481;43.406;24.454;2022-09-09T10:30:00;74308.13;;;-144.09;44.09
8890;BME280;4481;43.406;24.454;2022-09-09T10:32:37;74285.16;;;-144.09;45.47
8890;BME280;4481;43.406;24.454;2022-09-09T10:35:11;74285.16;;;-144.09;43.32
8890;BME280;4481;43.406;24.454;2022-09-09T10:37:50;74278.91;;;-144.09;42.75
8890;BME280;4481;43.406;24.454;2022-09-09T10:40:26;74280.97;;;-144.09;43.82
8890;BME280;4481;43.406;24.454;2022-09-09T10:43:03;74272.63;;;-144.09;43.82
8890;BME280;4481;43.406;24.454;2022-09-09T10:45:38;74285.16;;;-144.09;44.42
8890;BME280;4481;43.406;24.454;2022-09-09T10:48:18;74274.72;;;-144.09;44.33
8890;BME280;4481;43.406;24.454;2022-09-09T10:50:52;74272.63;;;-144.09;43.50
8890;BME280;4481;43.406;24.454;2022-09-09T10:53:27;74287.25;;;-144.09;43.29
8890;BME280;4481;43.406;24.454;2022-09-09T10:56:04;74274.72;;;-144.09;42.50
8890;BME280;4481;43.406;24.454;2022-09-09T10:58:37;74287.25;;;-144.09;42.83
8890;BME280;4481;43.406;24.454;2022-09-09T11:01:14;74312.31;;;-144.09;44.44
8890;BME280;4481;43.406;24.454;2022-09-09T11:03:42;74310.22;;;-144.09;43.63
8890;BME280;4481;43.406;24.454;2022-09-09T11:06:13;74318.56;;;-144.09;41.63
8890;BME280;4481;43.406;24.454;2022-09-09T11:08:41;74320.66;;;-144.09;43.44
8890;BME280;4481;43.406;24.454;2022-09-09T11:11:11;74310.22;;;-144.09;44.03
8890;BME280;4481;43.406;24.454;2022-09-09T11:13:44;74303.94;;;-144.09;44.37
8890;BME280;4481;43.406;24.454;2022-09-09T11:16:21;74322.75;;;-144.09;43.30
8890;BME280;4481;43.406;24.454;2022-09-09T11:18:56;74341.53;;;-144.09;42.88
8890;BME280;4481;43.406;24.454;2022-09-09T11:21:28;74366.59;;;-144.09;44.20
8890;BME280;4481;43.406;24.454;2022-09-09T11:23:59;74393.75;;;-144.09;45.41
8890;BME280;4481;43.406;24.454;2022-09-09T11:26:31;74414.63;;;-144.09;45.55
8890;BME280;4481;43.406;24.454;2022-09-09T11:29:14;74425.06;;;-144.09;46.47
8890;BME280;4481;43.406;24.454;2022-09-09T11:31:58;74391.66;;;-144.09;46.94
8890;BME280;4481;43.406;24.454;2022-09-09T11:34:41;74389.56;;;-144.09;47.22
8890;BME280;4481;43.406;24.454;2022-09-09T11:37:31;74379.13;;;-144.09;47.32
8890;BME280;4481;43.406;24.454;2022-09-09T11:40:17;74383.31;;;-144.09;45.49
8890;BME280;4481;43.406;24.454;2022-09-09T11:42:45;74381.22;;;-144.09;45.93
8890;BME280;4481;43.406;24.454;2022-09-09T11:45:24;74385.38;;;-144.09;45.90
8890;BME280;4481;43.406;24.454;2022-09-09T11:47:53;74395.84;;;-144.09;47.60
8890;BME280;4481;43.406;24.454;2022-09-09T11:50:34;74391.66;;;-144.09;46.86
8890;BME280;4481;43.406;24.454;2022-09-09T11:53:20;74422.97;;;-144.09;46.82
8890;BME280;4481;43.406;24.454;2022-09-09T11:55:59;74427.16;;;-144.09;46.95
8890;BME280;4481;43.406;24.454;2022-09-09T11:58:27;74437.59;;;-144.09;46.78
8890;BME280;4481;43.406;24.454;2022-09-09T12:00:58;74458.47;;;-144.09;47.41
8890;BME280;4481;43.406;24.454;2022-09-09T12:03:37;74491.91;;;-144.09;49.86
8890;BME280;4481;43.406;24.454;2022-09-09T12:06:18;74462.66;;;-144.09;48.54
8890;BME280;4481;43.406;24.454;2022-09-09T12:08:50;74454.31;;;-144.09;49.30
8890;BME280;4481;43.406;24.454;2022-09-09T12:11:25;74427.16;;;-144.09;50.08
8890;BME280;4481;43.406;24.454;2022-09-09T12:13:53;74433.41;;;-144.09;49.28
8890;BME280;4481;43.406;24.454;2022-09-09T12:16:32;74429.25;;;-144.09;50.66
8890;BME280;4481;43.406;24.454;2022-09-09T12:19:07;74420.88;;;-144.09;50.19
8890;BME280;4481;43.406;24.454;2022-09-09T12:21:45;74431.34;;;-144.09;50.23
8890;BME280;4481;43.406;24.454;2022-09-09T12:24:20;74433.41;;;-144.09;49.51
8890;BME280;4481;43.406;24.454;2022-09-09T12:26:52;74422.97;;;-144.09;49.77
8890;BME280;4481;43.406;24.454;2022-09-09T12:29:26;74408.38;;;-144.09;49.17
8890;BME280;4481;43.406;24.454;2022-09-09T12:31:57;74427.16;;;-144.09;48.08
8890;BME280;4481;43.406;24.454;2022-09-09T12:34:35;74437.59;;;-144.09;48.76
8890;BME280;4481;43.406;24.454;2022-09-09T12:37:12;74418.81;;;-144.09;50.06
8890;BME280;4481;43.406;24.454;2022-09-09T12:39:45;74433.41;;;-144.09;50.17
8890;BME280;4481;43.406;24.454;2022-09-09T12:42:18;74473.09;;;-144.09;52.71
8890;BME280;4481;43.406;24.454;2022-09-09T12:44:52;74496.06;;;-144.09;53.35
8890;BME280;4481;43.406;24.454;2022-09-09T12:47:18;74510.69;;;-144.09;54.28
8890;BME280;4481;43.406;24.454;2022-09-09T12:49:47;74500.25;;;-144.09;54.10
8890;BME280;4481;43.406;24.454;2022-09-09T12:52:22;74504.41;;;-144.09;54.07
8890;BME280;4481;43.406;24.454;2022-09-09T12:54:50;74498.16;;;-144.09;53.79
8890;BME280;4481;43.406;24.454;2022-09-09T12:57:17;74498.16;;;-144.09;55.15
8890;BME280;4481;43.406;24.454;2022-09-09T12:59:44;74481.44;;;-144.09;54.83
8890;BME280;4481;43.406;24.454;2022-09-09T13:02:18;74487.72;;;-144.09;55.67
8890;BME280;4481;43.406;24.454;2022-09-09T13:04:44;74481.44;;;-144.09;55.55
8890;BME280;4481;43.406;24.454;2022-09-09T13:07:12;74477.28;;;-144.09;54.16
8890;BME280;4481;43.406;24.454;2022-09-09T13:09:39;74491.91;;;-144.09;54.10